Napakiak, Alaska
Current Conditions -  °F | °C
As of 12:56 AM on Friday 24 Oct 2014 (Local Time) from PANA Reporting Station
Clear Clear  
Wind Chill: 23°   Ceiling: Unl
Heat Index: 31°   Visibility: 10mi
Dew Point: 31°   Wind: 9mph
Humidity: 100%   Direction: 290°WNW
Pressure: 29.82"   Gusts: NA
Location:  60.7°N, 161.95°W
Report Text: PANA 240856Z AUTO 29008KT 10SM CLR M01/M01 A2982 RMK AO2 SLP098 T10061006 400221078 53021 FZRANO
Loading
Personal Weather Stations






























Interactive Weather Map
Tropical Storm Tracking
New forecast layout! Learn more

10-Day Weather Forecast

Advertisements
Track Severe Weather on mobile